Time;durP1;ratioP1;P1;durP2;ratioP2;P2;SDS_P1;SDS_P2;PMS_P1;PMS_P2;Temp;Humidity;BMP_temperature;BMP_pressure;BME280_temperature;BME280_humidity;BME280_pressure;Samples;Min_cycle;Max_cycle;Signal;HPM_P1;HPM_P2
2022/01/10 00:00:16;;;;;;;32.45;18.52;;;1.20;99.90;;;;;;5011039;28;20656;-79
2022/01/10 00:02:44;;;;;;;32.30;20.38;;;1.20;99.90;;;;;;5011127;28;20076;-76
2022/01/10 00:05:11;;;;;;;35.72;20.95;;;1.30;99.90;;;;;;5011116;28;20037;-79
2022/01/10 00:07:38;;;;;;;31.25;18.83;;;1.30;99.90;;;;;;4993152;28;20084;-78
2022/01/10 00:10:04;;;;;;;27.88;17.42;;;1.30;99.90;;;;;;5010979;28;20067;-79
2022/01/10 00:12:30;;;;;;;30.13;16.95;;;1.30;99.90;;;;;;5010265;28;20391;-78
2022/01/10 00:14:56;;;;;;;30.13;17.23;;;1.40;99.90;;;;;;5011125;28;20022;-78
2022/01/10 00:17:22;;;;;;;32.42;17.83;;;1.30;99.90;;;;;;5010798;28;20117;-78
2022/01/10 00:19:48;;;;;;;31.75;18.63;;;1.30;99.90;;;;;;5010505;28;20057;-78
2022/01/10 00:22:15;;;;;;;31.50;18.73;;;1.30;99.90;;;;;;4993408;28;20029;-78
2022/01/10 00:24:40;;;;;;;32.80;20.23;;;1.20;99.90;;;;;;4993191;28;20030;-78
2022/01/10 00:27:08;;;;;;;36.67;19.73;;;1.30;99.90;;;;;;4992918;28;20018;-78
2022/01/10 00:29:34;;;;;;;34.00;19.17;;;1.30;99.90;;;;;;4992711;28;20042;-78
2022/01/10 00:32:01;;;;;;;33.92;19.25;;;1.30;99.90;;;;;;5013586;28;20137;-78
2022/01/10 00:34:28;;;;;;;28.02;17.13;;;1.30;99.90;;;;;;5013966;28;20033;-77
2022/01/10 00:36:54;;;;;;;27.13;15.60;;;1.20;99.90;;;;;;5013821;28;20022;-74
2022/01/10 00:39:20;;;;;;;30.05;16.70;;;1.30;99.90;;;;;;5014177;28;20116;-77
2022/01/10 00:41:46;;;;;;;29.10;17.42;;;1.30;99.90;;;;;;5015610;28;20447;-79
2022/01/10 00:44:13;;;;;;;28.92;16.75;;;1.30;99.90;;;;;;5014513;28;20032;-79
2022/01/10 00:46:39;;;;;;;29.83;18.55;;;1.30;99.90;;;;;;4996169;28;20088;-74
2022/01/10 00:49:06;;;;;;;34.00;20.08;;;1.30;99.90;;;;;;4996347;28;20133;-79
2022/01/10 00:51:32;;;;;;;32.00;18.55;;;1.40;99.90;;;;;;4996096;28;20098;-79
2022/01/10 00:53:58;;;;;;;35.97;19.73;;;1.30;99.90;;;;;;5013786;28;20110;-78
2022/01/10 00:56:25;;;;;;;38.17;22.52;;;1.40;99.90;;;;;;5013796;28;20026;-79
2022/01/10 00:58:51;;;;;;;39.90;22.10;;;1.40;99.90;;;;;;5013502;28;20046;-78
2022/01/10 01:01:19;;;;;;;33.58;18.73;;;1.40;99.90;;;;;;5013480;28;20037;-79
2022/01/10 01:03:46;;;;;;;38.28;22.42;;;1.40;99.90;;;;;;4996106;28;20022;-78
2022/01/10 01:06:14;;;;;;;36.97;20.73;;;1.40;99.90;;;;;;4995525;28;20125;-77
2022/01/10 01:08:41;;;;;;;39.53;22.65;;;1.50;99.90;;;;;;5013461;28;20065;-76
2022/01/10 01:11:39;;;;;;;35.40;20.88;;;1.40;99.90;;;;;;5013475;28;20465;-79
2022/01/10 01:14:06;;;;;;;35.75;21.33;;;1.40;99.90;;;;;;5013200;28;20025;-77
2022/01/10 01:24:27;;;;;;;32.10;19.55;;;1.40;99.90;;;;;;5012930;28;20065;-76
2022/01/10 01:26:54;;;;;;;36.13;20.17;;;1.30;99.90;;;;;;5012715;28;20042;-78
2022/01/10 01:29:23;;;;;;;35.42;19.63;;;1.30;99.90;;;;;;4978882;28;20069;-73
2022/01/10 01:31:50;;;;;;;33.30;20.30;;;1.30;99.90;;;;;;5012825;28;20076;-75
2022/01/10 01:34:18;;;;;;;38.38;22.70;;;1.30;99.90;;;;;;5012331;28;20025;-77
2022/01/10 01:36:49;;;;;;;35.53;21.70;;;1.30;99.90;;;;;;5013277;28;20026;-78
2022/01/10 01:39:21;;;;;;;36.60;21.55;;;1.30;99.90;;;;;;5012039;28;20088;-76
2022/01/10 01:41:54;;;;;;;51.58;30.17;;;1.30;99.90;;;;;;4994789;28;20026;-76
2022/01/10 01:44:21;;;;;;;45.53;28.13;;;1.30;99.90;;;;;;4995560;28;20549;-73
2022/01/10 01:46:47;;;;;;;46.33;27.90;;;1.30;99.90;;;;;;4995703;28;20022;-78
2022/01/10 01:49:15;;;;;;;42.75;26.60;;;1.20;99.90;;;;;;4994983;28;20492;-76
2022/01/10 01:51:41;;;;;;;40.83;24.40;;;1.30;99.90;;;;;;4995146;28;20129;-76
2022/01/10 01:54:09;;;;;;;45.63;26.90;;;1.20;99.90;;;;;;4995119;28;20022;-77
2022/01/10 01:56:37;;;;;;;39.92;25.58;;;1.20;99.90;;;;;;5012815;28;20476;-75
2022/01/10 01:59:04;;;;;;;42.15;24.00;;;1.30;99.90;;;;;;4994986;28;20488;-78
2022/01/10 02:01:30;;;;;;;42.97;23.35;;;1.30;99.90;;;;;;5013036;28;20440;-71
2022/01/10 02:03:56;;;;;;;35.38;22.60;;;1.30;99.90;;;;;;5012799;28;20036;-78
2022/01/10 02:06:27;;;;;;;38.80;23.50;;;1.30;99.90;;;;;;4994916;28;20034;-72
2022/01/10 02:08:53;;;;;;;39.28;23.70;;;1.30;99.90;;;;;;4995100;28;20102;-76
2022/01/10 02:11:19;;;;;;;37.42;24.83;;;1.30;99.90;;;;;;4997232;28;20033;-79
2022/01/10 02:13:46;;;;;;;45.38;25.95;;;1.30;99.90;;;;;;4993641;28;20048;-76
2022/01/10 02:16:34;;;;;;;47.78;25.70;;;1.20;99.90;;;;;;4995976;28;20513;-78
2022/01/10 02:19:03;;;;;;;42.03;24.23;;;1.30;99.90;;;;;;4995450;28;20113;-78
2022/01/10 02:21:29;;;;;;;39.95;24.55;;;1.20;99.90;;;;;;4994784;28;20133;-77
2022/01/10 02:23:57;;;;;;;43.65;25.75;;;1.20;99.90;;;;;;4994914;28;20026;-79
2022/01/10 02:26:28;;;;;;;40.90;26.33;;;1.20;99.90;;;;;;4994973;28;20018;-78
2022/01/10 02:28:55;;;;;;;45.58;27.92;;;1.20;99.90;;;;;;4994431;28;20049;-78
2022/01/10 02:31:21;;;;;;;49.60;29.25;;;1.20;99.90;;;;;;4978179;28;20041;-77
2022/01/10 02:33:50;;;;;;;46.97;29.45;;;1.20;99.90;;;;;;4994689;28;20060;-78
2022/01/10 02:36:24;;;;;;;53.20;32.25;;;1.20;99.90;;;;;;4994880;28;20051;-78
2022/01/10 02:39:01;;;;;;;50.47;28.85;;;1.20;99.90;;;;;;4994432;28;20456;-77
2022/01/10 02:41:32;;;;;;;54.78;34.47;;;1.20;99.90;;;;;;4994405;28;20036;-75
2022/01/10 02:44:02;;;;;;;56.53;35.28;;;1.10;99.90;;;;;;4994266;28;20041;-76
2022/01/10 02:46:33;;;;;;;55.88;35.13;;;1.10;99.90;;;;;;4993830;28;20057;-74
2022/01/10 02:48:59;;;;;;;54.60;34.65;;;1.10;99.90;;;;;;4993859;28;20041;-76
2022/01/10 02:51:26;;;;;;;56.20;28.90;;;1.10;99.90;;;;;;4995278;28;20041;-79
2022/01/10 02:53:52;;;;;;;49.10;31.15;;;1.10;99.90;;;;;;5012070;28;20025;-79
2022/01/10 02:56:18;;;;;;;46.70;30.25;;;1.10;99.90;;;;;;4994332;28;20120;-79
2022/01/10 02:58:45;;;;;;;55.20;29.88;;;1.00;99.90;;;;;;4994445;28;20456;-78
2022/01/10 03:01:11;;;;;;;46.10;27.60;;;1.00;99.90;;;;;;5011879;28;20063;-77
2022/01/10 03:03:39;;;;;;;42.83;25.50;;;1.10;99.90;;;;;;4994267;28;20439;-78
2022/01/10 03:06:06;;;;;;;47.85;26.17;;;1.10;99.90;;;;;;5012086;28;20030;-78
2022/01/10 03:08:33;;;;;;;42.55;25.80;;;1.10;99.90;;;;;;4993878;28;20108;-78
2022/01/10 03:11:02;;;;;;;39.10;24.10;;;1.10;99.90;;;;;;4994022;28;20041;-75
2022/01/10 03:13:28;;;;;;;45.25;28.08;;;1.10;99.90;;;;;;4993506;28;20026;-78
2022/01/10 03:15:54;;;;;;;48.30;28.40;;;1.10;99.90;;;;;;4994087;28;20069;-77
2022/01/10 03:18:20;;;;;;;55.35;29.25;;;1.10;99.90;;;;;;5011437;28;20014;-77
2022/01/10 03:20:46;;;;;;;47.70;26.92;;;1.00;99.90;;;;;;4993349;28;20380;-78
2022/01/10 03:23:12;;;;;;;44.50;28.70;;;1.00;99.90;;;;;;4994009;28;20022;-75
2022/01/10 03:25:39;;;;;;;49.28;27.90;;;1.00;99.90;;;;;;4993933;28;20025;-78
2022/01/10 03:28:06;;;;;;;52.20;30.00;;;1.00;99.90;;;;;;4993692;28;20112;-78
2022/01/10 03:30:34;;;;;;;42.42;26.95;;;0.90;99.90;;;;;;5010784;28;20038;-78
2022/01/10 03:33:01;;;;;;;50.00;29.25;;;0.90;99.90;;;;;;4993651;28;20051;-78
2022/01/10 03:35:35;;;;;;;50.83;29.10;;;0.90;99.90;;;;;;4993378;28;20026;-78
2022/01/10 03:38:03;;;;;;;53.80;30.85;;;0.80;99.90;;;;;;4993673;28;20455;-79
2022/01/10 03:40:32;;;;;;;48.28;29.85;;;0.90;99.90;;;;;;4993623;28;20495;-78
2022/01/10 03:43:03;;;;;;;52.30;30.98;;;0.90;99.90;;;;;;4977513;28;20030;-78
2022/01/10 03:45:29;;;;;;;49.80;30.23;;;0.90;99.90;;;;;;5011010;28;20038;-76
2022/01/10 03:47:54;;;;;;;50.83;27.70;;;0.90;99.90;;;;;;4996114;28;20032;-78
2022/01/10 03:50:23;;;;;;;49.92;29.88;;;0.90;99.90;;;;;;4999143;28;20057;-77
2022/01/10 03:52:49;;;;;;;47.03;27.13;;;0.90;99.90;;;;;;4993365;28;20645;-75
2022/01/10 03:55:15;;;;;;;49.78;29.33;;;0.90;99.90;;;;;;5011049;28;20037;-77
2022/01/10 03:57:41;;;;;;;51.65;28.40;;;0.90;99.90;;;;;;4993207;28;20087;-78
2022/01/10 04:00:09;;;;;;;44.95;25.13;;;0.90;99.90;;;;;;4997554;28;20272;-77
2022/01/10 04:02:46;;;;;;;40.00;24.42;;;0.90;99.90;;;;;;5013007;28;20116;-78
2022/01/10 04:05:13;;;;;;;44.92;24.33;;;0.90;99.90;;;;;;4996618;28;20029;-77
2022/01/10 04:07:40;;;;;;;44.70;25.50;;;0.80;99.90;;;;;;5000711;28;20024;-71
2022/01/10 04:10:06;;;;;;;39.00;24.05;;;0.90;99.90;;;;;;5016020;28;20034;-78
2022/01/10 04:12:32;;;;;;;41.50;23.83;;;0.90;99.90;;;;;;5013350;28;20459;-77
2022/01/10 04:14:58;;;;;;;40.78;23.73;;;0.80;99.90;;;;;;5021805;28;20030;-78
2022/01/10 04:17:24;;;;;;;41.83;23.60;;;0.90;99.90;;;;;;4997134;28;20026;-78
2022/01/10 04:19:50;;;;;;;41.33;22.85;;;0.90;99.90;;;;;;4996913;28;20030;-74
2022/01/10 04:22:16;;;;;;;38.60;22.17;;;0.90;99.90;;;;;;4996861;28;20061;-76
2022/01/10 04:24:42;;;;;;;37.35;21.65;;;0.90;99.90;;;;;;5014602;28;20487;-76
2022/01/10 04:27:11;;;;;;;32.05;20.05;;;0.80;99.90;;;;;;4997198;28;20048;-77
2022/01/10 04:29:37;;;;;;;33.58;21.58;;;0.80;99.90;;;;;;4999098;28;20026;-79
2022/01/10 04:32:04;;;;;;;33.38;19.67;;;0.90;99.90;;;;;;4997417;28;20061;-78
2022/01/10 04:34:30;;;;;;;37.90;19.90;;;0.80;99.90;;;;;;4996534;28;20490;-78
2022/01/10 04:36:56;;;;;;;30.80;17.98;;;0.90;99.90;;;;;;5012433;28;20076;-78
2022/01/10 04:39:23;;;;;;;34.53;18.20;;;0.80;99.90;;;;;;4996717;28;20045;-77
2022/01/10 04:41:49;;;;;;;33.72;21.40;;;0.80;99.90;;;;;;4996521;28;20547;-79
2022/01/10 04:44:15;;;;;;;37.60;21.25;;;0.70;99.90;;;;;;4996559;28;20026;-77
2022/01/10 04:46:41;;;;;;;39.30;21.35;;;0.80;99.90;;;;;;4996330;28;20060;-75
2022/01/10 04:49:14;;;;;;;42.95;23.10;;;0.70;99.90;;;;;;5012826;28;20044;-74
2022/01/10 04:51:40;;;;;;;35.60;21.13;;;0.70;99.90;;;;;;5013959;28;20045;-78
2022/01/10 04:54:06;;;;;;;37.05;21.48;;;0.70;99.90;;;;;;4996901;28;20026;-79
2022/01/10 04:56:34;;;;;;;35.00;21.80;;;0.70;99.90;;;;;;5015068;28;20040;-71
2022/01/10 04:59:01;;;;;;;32.53;20.45;;;0.70;99.90;;;;;;4997266;28;20068;-79
2022/01/10 05:01:28;;;;;;;36.25;20.40;;;0.70;99.90;;;;;;4996569;28;20029;-79
2022/01/10 05:03:57;;;;;;;32.78;20.63;;;0.70;99.90;;;;;;4996417;28;20507;-78
2022/01/10 05:06:24;;;;;;;36.35;20.10;;;0.70;99.90;;;;;;4996068;28;20041;-78
2022/01/10 05:08:51;;;;;;;31.60;17.70;;;0.70;99.90;;;;;;4997111;28;20029;-76
2022/01/10 05:11:33;;;;;;;27.10;14.75;;;0.60;99.90;;;;;;4995902;28;20115;-77
2022/01/10 05:13:59;;;;;;;31.52;16.85;;;0.60;99.90;;;;;;4995815;28;20026;-74
2022/01/10 05:16:25;;;;;;;23.70;13.45;;;0.60;99.90;;;;;;4994841;28;20056;-70
2022/01/10 05:18:51;;;;;;;24.92;14.73;;;0.60;99.90;;;;;;4979047;28;20444;-75
2022/01/10 05:21:20;;;;;;;27.52;14.55;;;0.60;99.90;;;;;;5007022;28;20391;-77
2022/01/10 05:23:46;;;;;;;28.75;15.13;;;0.50;99.90;;;;;;4995890;28;20040;-78
2022/01/10 05:26:12;;;;;;;25.45;16.58;;;0.60;99.90;;;;;;4995489;28;20018;-70
2022/01/10 05:28:39;;;;;;;27.88;15.50;;;0.50;99.90;;;;;;5008374;28;20026;-73
2022/01/10 05:31:06;;;;;;;28.98;15.27;;;0.50;99.90;;;;;;4986783;28;20076;-76
2022/01/10 05:33:42;;;;;;;31.52;15.63;;;0.50;99.90;;;;;;4992019;28;20026;-76
2022/01/10 05:36:08;;;;;;;28.17;14.57;;;0.50;99.90;;;;;;5012853;28;20056;-75
2022/01/10 05:38:33;;;;;;;25.08;15.18;;;0.40;99.90;;;;;;5013443;28;20028;-76
2022/01/10 05:40:59;;;;;;;28.70;14.45;;;0.50;99.90;;;;;;5013042;28;20053;-76
2022/01/10 05:43:25;;;;;;;32.17;16.98;;;0.40;99.90;;;;;;4995234;28;20018;-77
2022/01/10 05:45:54;;;;;;;41.58;21.40;;;0.40;99.90;;;;;;4995403;28;20385;-77
2022/01/10 05:48:25;;;;;;;40.28;21.58;;;0.50;99.90;;;;;;4995446;28;20029;-77
2022/01/10 05:50:55;;;;;;;30.40;16.70;;;0.50;99.90;;;;;;5011328;28;20084;-77
2022/01/10 05:53:25;;;;;;;26.92;14.73;;;0.40;99.90;;;;;;5009551;28;20030;-77
2022/01/10 05:55:55;;;;;;;21.65;12.25;;;0.40;99.90;;;;;;5027877;28;20378;-77
2022/01/10 05:58:24;;;;;;;25.52;13.98;;;0.40;99.90;;;;;;5008208;28;20050;-76
2022/01/10 06:00:51;;;;;;;25.83;13.65;;;0.40;99.90;;;;;;5012279;28;20040;-76
2022/01/10 06:03:17;;;;;;;27.33;14.50;;;0.40;99.90;;;;;;5012788;28;20113;-77
2022/01/10 06:05:50;;;;;;;25.33;15.15;;;0.40;99.90;;;;;;5011462;28;20128;-73
2022/01/10 06:08:16;;;;;;;29.85;16.40;;;0.40;99.90;;;;;;5012887;28;20109;-77
2022/01/10 06:10:43;;;;;;;34.35;17.83;;;0.40;99.90;;;;;;5011105;28;20034;-77
2022/01/10 06:13:30;;;;;;;29.50;15.55;;;0.40;99.90;;;;;;4997819;28;20511;-76
2022/01/10 06:15:56;;;;;;;29.40;18.40;;;0.30;99.90;;;;;;4998133;28;20432;-76
2022/01/10 06:18:23;;;;;;;28.88;16.58;;;0.40;99.90;;;;;;5005369;28;20033;-76
2022/01/10 06:20:49;;;;;;;23.02;14.20;;;0.40;99.90;;;;;;5022721;28;20507;-77
2022/01/10 06:23:17;;;;;;;28.48;16.40;;;0.40;99.90;;;;;;5026075;28;20078;-77
2022/01/10 06:25:45;;;;;;;26.02;15.70;;;0.30;99.90;;;;;;5025423;28;20033;-78
2022/01/10 06:28:11;;;;;;;26.80;15.38;;;0.40;99.90;;;;;;4994476;28;20489;-76
2022/01/10 06:30:38;;;;;;;28.73;16.20;;;0.30;99.90;;;;;;5025651;28;20042;-78
2022/01/10 06:33:06;;;;;;;44.95;24.60;;;0.30;99.90;;;;;;5017189;28;20022;-73
2022/01/10 06:35:32;;;;;;;42.92;23.90;;;0.30;99.90;;;;;;5011033;28;20395;-77
2022/01/10 06:37:59;;;;;;;33.90;19.65;;;0.30;99.90;;;;;;4994300;28;20476;-78
2022/01/10 06:40:25;;;;;;;27.65;16.60;;;0.30;99.90;;;;;;5012105;28;20041;-76
2022/01/10 06:42:52;;;;;;;31.65;18.13;;;0.30;99.90;;;;;;5019114;28;20034;-78
2022/01/10 06:45:24;;;;;;;28.48;17.58;;;0.30;99.90;;;;;;5005364;28;20135;-76
2022/01/10 06:47:50;;;;;;;34.30;19.67;;;0.20;99.90;;;;;;5003860;28;20033;-77
2022/01/10 06:50:27;;;;;;;33.92;19.35;;;0.20;99.90;;;;;;4986984;28;20049;-77
2022/01/10 06:53:06;;;;;;;32.85;20.20;;;0.20;99.90;;;;;;5007571;28;20516;-77
2022/01/10 06:55:38;;;;;;;34.97;22.10;;;0.30;99.90;;;;;;4975959;28;20019;-77
2022/01/10 06:58:06;;;;;;;41.15;22.85;;;0.30;99.90;;;;;;4969365;28;20050;-77
2022/01/10 07:00:33;;;;;;;38.85;22.45;;;0.30;99.90;;;;;;4995048;28;20022;-76
2022/01/10 07:03:01;;;;;;;43.00;23.15;;;0.30;99.90;;;;;;5010931;28;20042;-76
2022/01/10 07:05:29;;;;;;;37.35;22.65;;;0.30;99.90;;;;;;4994047;28;20029;-77
2022/01/10 07:08:06;;;;;;;36.47;20.98;;;0.30;99.90;;;;;;4998287;28;20022;-77
2022/01/10 07:10:37;;;;;;;38.90;22.45;;;0.30;99.90;;;;;;5010633;28;20040;-74
2022/01/10 07:13:04;;;;;;;38.00;20.60;;;0.40;99.90;;;;;;4994167;28;20036;-77
2022/01/10 07:15:30;;;;;;;34.63;21.40;;;0.30;99.90;;;;;;4994272;28;20061;-77
2022/01/10 07:18:00;;;;;;;36.25;20.95;;;0.40;99.90;;;;;;5012839;28;20483;-76
2022/01/10 07:20:32;;;;;;;32.47;16.55;;;0.30;99.90;;;;;;4992941;28;20030;-76
2022/01/10 07:23:02;;;;;;;34.05;19.08;;;0.40;99.90;;;;;;4993297;28;20073;-77
2022/01/10 07:25:28;;;;;;;39.00;20.98;;;0.40;99.90;;;;;;4993681;28;20036;-76
2022/01/10 07:27:57;;;;;;;31.63;18.80;;;0.40;99.90;;;;;;5024730;28;20029;-77
2022/01/10 07:30:25;;;;;;;34.88;19.38;;;0.30;99.90;;;;;;5024491;28;20049;-77
2022/01/10 07:32:53;;;;;;;36.72;19.52;;;0.40;99.90;;;;;;5011651;28;20022;-77
2022/01/10 07:35:19;;;;;;;30.08;17.73;;;0.30;99.90;;;;;;5010919;28;20442;-76
2022/01/10 07:37:45;;;;;;;33.80;19.33;;;0.30;99.90;;;;;;5010955;28;20018;-75
2022/01/10 07:40:11;;;;;;;35.03;20.55;;;0.30;99.90;;;;;;5010231;28;20365;-75
2022/01/10 07:42:37;;;;;;;38.53;20.58;;;0.30;99.90;;;;;;5009734;28;20021;-72
2022/01/10 07:45:10;;;;;;;32.47;19.63;;;0.30;99.90;;;;;;4992256;28;20029;-78
2022/01/10 07:47:36;;;;;;;35.72;21.63;;;0.40;99.90;;;;;;5010973;28;20065;-77
2022/01/10 07:50:04;;;;;;;37.58;19.98;;;0.40;99.90;;;;;;4997798;28;20038;-78
2022/01/10 07:52:30;;;;;;;32.65;20.02;;;0.40;99.90;;;;;;5007004;28;20364;-73
2022/01/10 07:54:57;;;;;;;35.75;21.17;;;0.40;99.90;;;;;;5010490;28;20030;-79
2022/01/10 07:57:23;;;;;;;40.28;22.73;;;0.50;99.90;;;;;;4993661;28;20125;-78
2022/01/10 07:59:53;;;;;;;34.88;21.77;;;0.50;99.90;;;;;;5026726;28;20030;-78
2022/01/10 08:02:21;;;;;;;37.00;21.67;;;0.50;99.90;;;;;;5022319;28;20029;-77
2022/01/10 08:04:48;;;;;;;38.30;23.05;;;0.60;99.90;;;;;;5010893;28;20030;-75
2022/01/10 08:07:15;;;;;;;35.67;20.52;;;0.60;99.90;;;;;;5026096;28;20684;-77
2022/01/10 08:09:42;;;;;;;37.60;23.10;;;0.60;99.90;;;;;;4997189;28;20041;-76
2022/01/10 08:12:08;;;;;;;39.60;22.08;;;0.60;99.90;;;;;;5011372;28;20026;-77
2022/01/10 08:14:35;;;;;;;45.38;24.13;;;0.60;99.90;;;;;;5011125;28;20030;-77
2022/01/10 08:17:01;;;;;;;35.92;20.80;;;0.60;99.90;;;;;;5011747;28;20360;-78
2022/01/10 08:19:30;;;;;;;35.08;19.25;;;0.70;99.90;;;;;;4993480;28;20038;-76
2022/01/10 08:21:57;;;;;;;33.08;18.00;;;0.60;99.90;;;;;;5010893;28;20026;-78
2022/01/10 08:24:24;;;;;;;36.78;21.38;;;0.60;99.90;;;;;;4993459;28;20053;-77
2022/01/10 08:26:53;;;;;;;40.75;21.75;;;0.60;99.90;;;;;;5007685;28;20052;-77
2022/01/10 08:29:21;;;;;;;37.08;20.15;;;0.60;99.90;;;;;;5026806;28;20435;-77
2022/01/10 08:31:48;;;;;;;38.40;23.52;;;0.60;99.90;;;;;;4998961;28;20036;-77
2022/01/10 08:34:14;;;;;;;38.55;21.13;;;0.70;99.90;;;;;;5010677;28;20030;-78
2022/01/10 08:36:40;;;;;;;37.60;21.13;;;0.70;99.90;;;;;;5011051;28;20033;-72
2022/01/10 08:39:09;;;;;;;36.45;19.58;;;0.70;99.90;;;;;;5011267;28;20564;-77
2022/01/10 08:41:36;;;;;;;34.08;19.52;;;0.70;99.90;;;;;;5009812;28;20033;-74
2022/01/10 08:44:03;;;;;;;34.55;20.20;;;0.70;99.90;;;;;;5011012;28;20111;-73
2022/01/10 08:46:29;;;;;;;32.13;18.88;;;0.70;99.90;;;;;;5011057;28;20472;-76
2022/01/10 08:48:56;;;;;;;32.00;18.20;;;0.60;99.90;;;;;;5009802;28;20026;-77
2022/01/10 08:51:23;;;;;;;31.70;19.30;;;0.60;99.90;;;;;;5026113;28;20042;-76
2022/01/10 08:53:51;;;;;;;37.10;20.27;;;0.60;99.90;;;;;;5028448;28;20040;-76
2022/01/10 08:56:21;;;;;;;37.38;21.02;;;0.60;99.90;;;;;;5011760;28;20108;-76
2022/01/10 08:59:07;;;;;;;30.02;19.42;;;0.70;99.90;;;;;;5012363;28;20050;-75
2022/01/10 09:01:39;;;;;;;32.55;19.42;;;0.70;99.90;;;;;;4997730;28;20034;-76
2022/01/10 09:04:16;;;;;;;33.33;19.63;;;0.70;99.90;;;;;;5030092;28;20101;-76
2022/01/10 09:06:46;;;;;;;31.38;18.38;;;0.70;99.90;;;;;;4990257;28;20033;-75
2022/01/10 09:09:12;;;;;;;32.97;18.33;;;0.70;99.90;;;;;;4996502;28;20032;-74
2022/01/10 09:11:41;;;;;;;32.45;18.70;;;0.60;99.90;;;;;;5029597;28;20204;-74
2022/01/10 09:14:08;;;;;;;30.17;17.20;;;0.70;99.90;;;;;;5015214;28;20500;-75
2022/01/10 09:16:35;;;;;;;31.13;17.58;;;0.70;99.90;;;;;;5012546;28;20534;-73
2022/01/10 09:19:01;;;;;;;33.05;18.13;;;0.70;99.90;;;;;;5013853;28;20053;-76
2022/01/10 09:21:27;;;;;;;35.42;19.00;;;0.70;99.90;;;;;;4996152;28;20022;-75
2022/01/10 09:23:53;;;;;;;30.95;17.75;;;0.70;99.90;;;;;;5028911;28;20029;-77
2022/01/10 09:26:19;;;;;;;33.70;18.80;;;0.70;99.90;;;;;;4996969;28;20117;-74
2022/01/10 09:28:45;;;;;;;31.23;19.10;;;0.80;99.90;;;;;;5013339;28;20034;-75
2022/01/10 09:31:12;;;;;;;33.25;19.33;;;0.80;99.90;;;;;;5007767;28;20121;-75
2022/01/10 09:33:39;;;;;;;33.80;19.00;;;0.80;99.90;;;;;;5011651;28;20424;-75
2022/01/10 09:36:06;;;;;;;34.55;19.58;;;0.80;99.90;;;;;;5013143;28;20105;-76
2022/01/10 09:38:31;;;;;;;37.63;20.17;;;0.70;99.90;;;;;;5013374;28;20030;-76
2022/01/10 09:40:57;;;;;;;29.75;18.58;;;0.70;99.90;;;;;;5013202;28;20026;-75
2022/01/10 09:43:23;;;;;;;33.88;20.95;;;0.70;99.90;;;;;;5013418;28;20038;-76
2022/01/10 09:45:53;;;;;;;32.67;18.60;;;0.80;99.90;;;;;;5013195;28;20014;-77
2022/01/10 09:48:19;;;;;;;33.80;18.50;;;0.80;99.90;;;;;;4995621;28;20044;-76
2022/01/10 09:50:45;;;;;;;36.00;21.73;;;0.80;99.90;;;;;;5016404;28;20042;-77
2022/01/10 09:53:13;;;;;;;29.15;17.73;;;0.90;99.90;;;;;;5013276;28;20067;-76
2022/01/10 09:55:39;;;;;;;37.15;21.50;;;0.80;99.90;;;;;;5012945;28;20595;-77
2022/01/10 09:58:06;;;;;;;35.83;19.77;;;0.90;99.90;;;;;;5012316;28;20222;-77
2022/01/10 10:00:32;;;;;;;36.63;20.10;;;0.90;99.90;;;;;;5012573;28;20062;-76
2022/01/10 10:02:59;;;;;;;34.45;19.65;;;0.80;99.90;;;;;;5023057;28;20388;-76
2022/01/10 10:05:25;;;;;;;35.17;19.08;;;0.80;99.90;;;;;;5014009;28;20028;-73
2022/01/10 10:07:51;;;;;;;34.67;19.58;;;0.70;99.90;;;;;;5024430;28;20061;-77
2022/01/10 10:10:18;;;;;;;35.50;21.05;;;0.70;99.90;;;;;;5013711;28;20759;-75
2022/01/10 10:12:48;;;;;;;37.42;20.58;;;0.80;99.90;;;;;;5027641;28;20058;-76
2022/01/10 10:15:22;;;;;;;33.13;19.55;;;0.80;99.90;;;;;;5010338;28;20053;-76
2022/01/10 10:17:49;;;;;;;33.20;18.67;;;0.80;99.90;;;;;;5020016;28;20030;-77
2022/01/10 10:20:18;;;;;;;35.95;20.42;;;0.80;99.90;;;;;;5011298;28;20058;-75
2022/01/10 10:22:46;;;;;;;36.17;19.63;;;0.90;99.90;;;;;;5018703;28;20033;-77
2022/01/10 10:25:13;;;;;;;30.80;17.85;;;0.90;99.90;;;;;;5010079;28;20700;-77
2022/01/10 10:27:42;;;;;;;35.55;20.08;;;1.00;99.90;;;;;;5013210;28;20037;-78
2022/01/10 10:30:25;;;;;;;34.97;19.02;;;1.00;99.90;;;;;;5004567;28;20096;-76
2022/01/10 10:32:51;;;;;;;36.90;19.95;;;1.00;99.90;;;;;;5012302;28;20117;-76
2022/01/10 10:35:18;;;;;;;31.83;18.50;;;1.00;99.90;;;;;;5011874;28;20431;-72
2022/01/10 10:37:46;;;;;;;39.78;22.10;;;1.10;99.90;;;;;;5020501;28;20056;-78
2022/01/10 10:40:18;;;;;;;29.77;17.02;;;1.10;99.90;;;;;;5022472;28;20033;-77
2022/01/10 10:42:45;;;;;;;;;;;1.20;99.90;;;;;;4992396;28;20045;-76
2022/01/10 10:45:13;;;;;;;30.50;16.52;;;1.30;99.90;;;;;;5011753;28;20004;-78
2022/01/10 10:47:42;;;;;;;36.42;18.42;;;1.20;99.90;;;;;;5012055;28;20038;-76
2022/01/10 10:50:10;;;;;;;34.85;20.08;;;1.20;99.90;;;;;;5011990;28;20500;-76
2022/01/10 10:52:38;;;;;;;33.58;19.83;;;1.30;99.90;;;;;;5011503;28;20382;-76
2022/01/10 10:55:11;;;;;;;30.23;17.95;;;1.30;99.90;;;;;;5012287;28;20129;-76
2022/01/10 10:57:39;;;;;;;30.50;18.80;;;1.20;99.90;;;;;;5012394;28;20054;-75
2022/01/10 11:00:12;;;;;;;31.58;17.30;;;1.30;99.90;;;;;;5012054;28;20030;-72
2022/01/10 11:02:39;;;;;;;35.38;18.88;;;1.20;99.90;;;;;;5011010;28;20395;-71
2022/01/10 11:05:07;;;;;;;31.00;17.23;;;1.30;99.90;;;;;;5011816;28;20053;-73
2022/01/10 11:07:35;;;;;;;23.02;14.80;;;1.30;99.90;;;;;;5011792;28;20060;-77
2022/01/10 11:10:06;;;;;;;30.90;18.02;;;1.20;99.90;;;;;;4993865;28;20076;-76
2022/01/10 11:12:36;;;;;;;29.95;17.95;;;1.30;99.90;;;;;;5017226;28;20105;-76
2022/01/10 11:15:04;;;;;;;30.50;17.55;;;1.30;99.90;;;;;;5022773;28;20092;-78
2022/01/10 11:17:31;;;;;;;33.08;20.23;;;1.30;99.90;;;;;;5018543;28;20408;-77
2022/01/10 11:20:13;;;;;;;34.65;19.35;;;1.40;99.90;;;;;;5011877;28;20030;-77
2022/01/10 11:22:44;;;;;;;36.13;19.80;;;1.20;99.90;;;;;;5011082;28;20057;-76
2022/01/10 11:25:34;;;;;;;35.95;21.00;;;1.20;99.90;;;;;;5010771;28;20034;-77
2022/01/10 11:28:06;;;;;;;35.30;18.20;;;1.20;99.90;;;;;;4912659;29;20040;-78
2022/01/10 11:30:38;;;;;;;32.50;17.83;;;1.10;99.90;;;;;;4912758;29;20085;-78
2022/01/10 11:33:26;;;;;;;37.30;19.50;;;1.10;99.90;;;;;;4912548;29;20495;-70
2022/01/10 11:35:57;;;;;;;32.40;17.38;;;1.10;99.90;;;;;;4912835;29;20122;-76
2022/01/10 11:38:42;;;;;;;33.75;18.35;;;1.00;99.90;;;;;;4912930;29;20055;-77
2022/01/10 11:41:23;;;;;;;43.03;25.40;;;1.00;99.90;;;;;;4912769;29;20221;-77
2022/01/10 11:43:56;;;;;;;42.33;24.42;;;1.10;99.90;;;;;;4897134;29;20036;-76
2022/01/10 11:46:23;;;;;;;33.05;19.17;;;1.00;99.90;;;;;;4918742;29;20036;-78
2022/01/10 11:48:58;;;;;;;32.72;19.77;;;1.10;99.90;;;;;;4912938;29;20110;-72
2022/01/10 11:51:25;;;;;;;30.35;18.02;;;1.00;99.90;;;;;;4913038;29;20558;-76
2022/01/10 11:53:54;;;;;;;33.40;19.55;;;1.00;99.90;;;;;;4912929;29;20031;-77
2022/01/10 11:56:32;;;;;;;66.70;39.13;;;1.00;99.90;;;;;;4912873;29;20119;-77
2022/01/10 11:59:31;;;;;;;38.22;22.48;;;1.00;99.90;;;;;;4896648;29;20067;-75
2022/01/10 12:02:10;;;;;;;36.50;19.85;;;1.00;99.90;;;;;;4930803;29;20040;-78
2022/01/10 12:04:45;;;;;;;32.17;18.02;;;1.00;99.90;;;;;;4940590;28;20038;-77
2022/01/10 12:07:14;;;;;;;37.83;23.35;;;1.00;99.90;;;;;;5011502;28;20030;-78
2022/01/10 12:09:41;;;;;;;44.50;24.88;;;1.00;99.90;;;;;;5010515;28;20041;-76
2022/01/10 12:12:09;;;;;;;31.65;17.23;;;1.00;99.90;;;;;;5009941;28;20049;-77
2022/01/10 12:14:35;;;;;;;36.20;19.52;;;1.00;99.90;;;;;;5010562;28;20669;-78
2022/01/10 12:17:01;;;;;;;39.55;20.55;;;0.90;99.90;;;;;;5010961;28;20061;-77
2022/01/10 12:19:28;;;;;;;29.48;18.50;;;1.00;99.90;;;;;;5009596;28;20476;-76
2022/01/10 12:21:54;;;;;;;28.58;16.13;;;0.90;99.90;;;;;;5009864;28;20026;-74
2022/01/10 12:24:21;;;;;;;31.70;17.30;;;0.90;99.90;;;;;;5009384;28;20380;-76
2022/01/10 12:26:47;;;;;;;34.35;19.92;;;1.00;99.90;;;;;;5012658;28;20380;-77
2022/01/10 12:29:15;;;;;;;38.78;21.65;;;1.00;99.90;;;;;;4980379;28;20033;-77
2022/01/10 12:31:43;;;;;;;35.78;18.58;;;1.00;99.90;;;;;;5026201;28;20384;-77
2022/01/10 12:34:11;;;;;;;34.03;18.40;;;1.00;99.90;;;;;;5014930;28;20372;-75
2022/01/10 12:36:39;;;;;;;32.08;17.70;;;1.00;99.90;;;;;;5031190;28;20026;-75
2022/01/10 12:39:24;;;;;;;35.55;19.30;;;1.00;99.90;;;;;;5023482;28;20018;-77
2022/01/10 12:41:56;;;;;;;39.80;22.20;;;0.90;99.90;;;;;;4997573;28;20022;-77
2022/01/10 12:44:29;;;;;;;33.67;19.50;;;1.00;99.90;;;;;;5013021;28;20026;-77
2022/01/10 12:46:56;;;;;;;32.20;18.17;;;1.00;99.90;;;;;;5013765;28;20030;-76
2022/01/10 12:49:22;;;;;;;34.90;19.40;;;0.90;99.90;;;;;;5013435;28;20069;-73
2022/01/10 12:51:50;;;;;;;36.28;17.15;;;0.90;99.90;;;;;;5013778;28;20065;-74